createdAt,value
2019-02-19T00:00:56.385Z,1.37
2019-02-19T00:01:57.821Z,1.26
2019-02-19T00:02:56.453Z,1.30
2019-02-19T00:03:56.490Z,1.42
2019-02-19T00:04:56.525Z,1.33
2019-02-19T00:05:56.575Z,1.40
2019-02-19T00:06:56.594Z,1.34
2019-02-19T00:07:56.690Z,1.29
2019-02-19T00:08:56.666Z,1.30
2019-02-19T00:09:56.708Z,1.26
2019-02-19T00:10:56.736Z,1.30
2019-02-19T00:11:56.771Z,1.26
2019-02-19T00:12:56.809Z,1.29
2019-02-19T00:13:56.842Z,1.30
2019-02-19T00:14:56.878Z,1.29
2019-02-19T00:15:56.917Z,1.29
2019-02-19T00:16:56.948Z,1.12
2019-02-19T00:17:56.986Z,1.20
2019-02-19T00:18:57.019Z,1.08
2019-02-19T00:19:57.054Z,1.12
2019-02-19T00:20:57.091Z,1.09
2019-02-19T00:21:57.127Z,1.15
2019-02-19T00:22:57.161Z,1.14
2019-02-19T00:23:57.197Z,1.15
2019-02-19T00:24:57.234Z,1.09
2019-02-19T00:25:57.282Z,1.14
2019-02-19T00:26:57.352Z,1.11
2019-02-19T00:27:57.387Z,1.09
2019-02-19T00:28:57.380Z,1.14
2019-02-19T00:29:57.407Z,1.14
2019-02-19T00:30:57.444Z,1.11
2019-02-19T00:31:57.478Z,1.11
2019-02-19T00:32:57.514Z,1.09
2019-02-19T00:33:57.552Z,1.11
2019-02-19T00:34:57.588Z,1.09
2019-02-19T00:35:57.619Z,1.08
2019-02-19T00:36:57.657Z,1.18
2019-02-19T00:37:57.690Z,1.20
2019-02-19T00:38:57.728Z,1.29
2019-02-19T00:39:57.770Z,1.15
2019-02-19T00:40:57.796Z,1.16
2019-02-19T00:41:57.831Z,1.16
2019-02-19T00:42:57.867Z,1.11
2019-02-19T00:43:57.903Z,1.11
2019-02-19T00:44:57.936Z,1.09
2019-02-19T00:45:57.973Z,1.11
2019-02-19T00:46:58.007Z,1.08
2019-02-19T00:47:58.045Z,1.00
2019-02-19T00:48:58.077Z,1.02
2019-02-19T00:49:58.121Z,1.00
2019-02-19T00:50:58.155Z,0.96
2019-02-19T00:51:58.185Z,0.91
2019-02-19T00:52:58.220Z,1.04
2019-02-19T00:53:58.262Z,0.91
2019-02-19T00:54:58.290Z,0.94
2019-02-19T00:55:58.325Z,0.93
2019-02-19T00:56:58.362Z,0.87
2019-02-19T00:57:58.395Z,0.86
2019-02-19T00:58:58.431Z,0.88
2019-02-19T00:59:58.469Z,0.83
2019-02-19T01:00:58.502Z,0.83
2019-02-19T01:01:58.535Z,0.96
2019-02-19T01:02:58.572Z,0.90
2019-02-19T01:03:58.614Z,0.80
2019-02-19T01:04:58.644Z,0.73
2019-02-19T01:05:58.679Z,0.79
2019-02-19T01:06:58.717Z,0.79
2019-02-19T01:07:58.750Z,0.79
2019-02-19T01:08:58.782Z,0.76
2019-02-19T01:09:58.825Z,0.69
2019-02-19T01:10:58.855Z,0.72
2019-02-19T01:11:58.892Z,0.76
2019-02-19T01:12:58.928Z,0.75
2019-02-19T01:13:58.957Z,0.83
2019-02-19T01:14:58.995Z,0.83
2019-02-19T01:15:59.027Z,0.87
2019-02-19T01:16:59.063Z,0.86
2019-02-19T01:17:59.098Z,0.87
2019-02-19T01:18:59.134Z,0.86
2019-02-19T01:19:59.172Z,0.83
2019-02-19T01:20:59.216Z,0.90
2019-02-19T01:21:59.238Z,0.86
2019-02-19T01:22:59.274Z,0.87
2019-02-19T01:23:59.310Z,0.88
2019-02-19T01:24:59.346Z,0.86
2019-02-19T01:25:59.379Z,0.88
2019-02-19T01:26:59.422Z,0.91
2019-02-19T01:27:59.449Z,0.83
2019-02-19T01:28:59.485Z,0.88
2019-02-19T01:29:59.519Z,0.87
2019-02-19T01:30:59.559Z,0.86
2019-02-19T01:31:59.592Z,0.80
2019-02-19T01:32:59.627Z,0.76
2019-02-19T01:33:59.716Z,0.73
2019-02-19T01:34:59.697Z,0.73
2019-02-19T01:35:59.731Z,0.84
2019-02-19T01:36:59.808Z,0.75
2019-02-19T01:37:59.802Z,0.78
2019-02-19T01:38:59.836Z,0.66
2019-02-19T01:39:59.879Z,0.80
2019-02-19T01:40:59.914Z,0.68
2019-02-19T01:41:59.942Z,0.75
2019-02-19T01:42:59.997Z,0.70
2019-02-19T01:44:00.012Z,0.69
2019-02-19T01:45:00.106Z,0.78
2019-02-19T01:46:00.084Z,0.66
2019-02-19T01:47:00.119Z,0.79
2019-02-19T01:48:00.154Z,0.80
2019-02-19T01:49:00.193Z,0.83
2019-02-19T01:50:00.296Z,0.83
2019-02-19T01:51:00.257Z,0.66
2019-02-19T01:52:00.294Z,0.68
2019-02-19T01:53:00.329Z,0.68
2019-02-19T01:54:00.363Z,0.75
2019-02-19T01:55:00.398Z,0.68
2019-02-19T01:56:00.433Z,0.69
2019-02-19T01:57:00.470Z,0.78
2019-02-19T01:58:00.503Z,0.66
2019-02-19T01:59:00.539Z,0.68
2019-02-19T02:00:00.578Z,0.83
2019-02-19T02:01:00.610Z,0.72
2019-02-19T02:02:00.644Z,0.72
2019-02-19T02:03:00.677Z,0.73
2019-02-19T02:04:00.714Z,0.75
2019-02-19T02:05:00.750Z,0.70
2019-02-19T02:06:00.793Z,0.69
2019-02-19T02:07:00.822Z,0.72
2019-02-19T02:08:00.864Z,0.72
2019-02-19T02:09:00.889Z,0.72
2019-02-19T02:10:00.923Z,0.62
2019-02-19T02:11:00.960Z,0.60
2019-02-19T02:12:00.995Z,0.60
2019-02-19T02:13:01.031Z,0.53
2019-02-19T02:14:01.073Z,0.61
2019-02-19T02:15:01.101Z,0.53
2019-02-19T02:16:01.139Z,0.60
2019-02-19T02:17:01.172Z,0.60
2019-02-19T02:18:01.210Z,0.61
2019-02-19T02:19:01.241Z,0.53
2019-02-19T02:20:01.275Z,0.58
2019-02-19T02:21:01.311Z,0.60
2019-02-19T02:22:01.346Z,0.58
2019-02-19T02:23:01.380Z,0.69
2019-02-19T02:24:01.419Z,0.69
2019-02-19T02:25:01.452Z,0.65
2019-02-19T02:26:01.485Z,0.65
2019-02-19T02:27:01.521Z,0.68
2019-02-19T02:28:01.557Z,0.72
2019-02-19T02:29:01.592Z,0.69
2019-02-19T02:30:01.638Z,0.70
2019-02-19T02:31:01.826Z,0.78
2019-02-19T02:32:01.701Z,0.80
2019-02-19T02:33:01.739Z,0.88
2019-02-19T02:34:01.766Z,0.84
2019-02-19T02:35:01.810Z,0.86
2019-02-19T02:36:01.842Z,0.80
2019-02-19T02:37:01.874Z,0.76
2019-02-19T02:38:01.906Z,0.70
2019-02-19T02:39:01.954Z,0.70
2019-02-19T02:40:01.977Z,0.72
2019-02-19T02:41:02.017Z,0.79
2019-02-19T02:42:02.054Z,0.73
2019-02-19T02:43:02.088Z,0.72
2019-02-19T02:44:02.116Z,0.72
2019-02-19T02:45:02.155Z,0.73
2019-02-19T02:46:02.186Z,0.70
2019-02-19T02:47:02.221Z,0.69
2019-02-19T02:48:02.256Z,0.65
2019-02-19T02:49:02.301Z,0.68
2019-02-19T02:50:02.429Z,0.75
2019-02-19T02:51:02.365Z,0.72
2019-02-19T02:52:02.408Z,0.72
2019-02-19T02:53:02.444Z,0.79
2019-02-19T02:54:02.468Z,0.73
2019-02-19T02:55:02.504Z,0.78
2019-02-19T02:56:02.543Z,0.66
2019-02-19T02:57:02.574Z,0.68
2019-02-19T02:58:02.607Z,0.61
2019-02-19T02:59:02.643Z,0.55
2019-02-19T03:00:02.682Z,0.58
2019-02-19T03:01:02.714Z,0.50
2019-02-19T03:02:02.747Z,0.55
2019-02-19T03:03:02.782Z,0.55
2019-02-19T03:04:02.818Z,0.61
2019-02-19T03:05:02.853Z,0.55
2019-02-19T03:06:02.889Z,0.57
2019-02-19T03:07:02.923Z,0.57
2019-02-19T03:08:02.968Z,0.57
2019-02-19T03:09:03.004Z,0.53
2019-02-19T03:10:03.025Z,0.53
2019-02-19T03:11:03.075Z,0.47
2019-02-19T03:12:03.105Z,0.44
2019-02-19T03:13:03.134Z,0.47
2019-02-19T03:14:03.167Z,0.49
2019-02-19T03:15:03.202Z,0.53
2019-02-19T03:16:03.240Z,0.51
2019-02-19T03:17:03.273Z,0.47
2019-02-19T03:18:03.306Z,0.49
2019-02-19T03:19:03.346Z,0.47
2019-02-19T03:20:03.380Z,0.47
2019-02-19T03:21:03.415Z,0.55
2019-02-19T03:22:03.460Z,0.53
2019-02-19T03:23:03.485Z,0.58
2019-02-19T03:24:03.519Z,0.49
2019-02-19T03:25:03.557Z,0.49
2019-02-19T03:26:03.589Z,0.57
2019-02-19T03:27:03.623Z,0.51
2019-02-19T03:28:03.766Z,0.61
2019-02-19T03:29:03.694Z,0.53
2019-02-19T03:30:03.735Z,0.53
2019-02-19T03:31:03.772Z,0.57
2019-02-19T03:32:03.817Z,0.61
2019-02-19T03:33:03.851Z,0.58
2019-02-19T03:34:03.868Z,0.58
2019-02-19T03:35:03.903Z,0.55
2019-02-19T03:36:03.937Z,0.58
2019-02-19T03:37:03.988Z,0.57
2019-02-19T03:38:04.016Z,0.65
2019-02-19T03:39:04.041Z,0.60
2019-02-19T03:40:04.087Z,0.66
2019-02-19T03:41:04.117Z,0.70
2019-02-19T03:42:04.148Z,0.75
2019-02-19T03:43:04.185Z,0.68
2019-02-19T03:44:04.226Z,0.73
2019-02-19T03:45:04.254Z,0.66
2019-02-19T03:46:11.824Z,0.65
2019-02-19T03:47:04.321Z,0.70
2019-02-19T03:48:04.358Z,0.72
2019-02-19T03:49:04.393Z,0.65
2019-02-19T03:50:04.428Z,0.68
2019-02-19T03:51:04.465Z,0.78
2019-02-19T03:52:04.531Z,0.68
2019-02-19T03:53:04.534Z,0.73
2019-02-19T03:54:04.568Z,0.83
2019-02-19T03:55:04.601Z,0.79
2019-02-19T03:56:04.638Z,0.80
2019-02-19T03:57:04.673Z,0.78
2019-02-19T03:58:04.705Z,0.68
2019-02-19T03:59:04.743Z,0.86
2019-02-19T04:00:04.779Z,0.78
2019-02-19T04:01:04.814Z,0.83
2019-02-19T04:02:04.848Z,0.86
2019-02-19T04:03:04.899Z,0.88
2019-02-19T04:04:04.918Z,0.86
2019-02-19T04:05:04.962Z,0.87
2019-02-19T04:06:04.997Z,0.83
2019-02-19T04:07:05.024Z,0.93
2019-02-19T04:08:05.074Z,0.96
2019-02-19T04:09:05.094Z,0.98
2019-02-19T04:10:05.132Z,1.02
2019-02-19T04:11:05.167Z,0.98
2019-02-19T04:12:05.199Z,0.97
2019-02-19T04:13:05.234Z,1.05
2019-02-19T04:14:05.267Z,1.11
2019-02-19T04:15:05.306Z,1.11
2019-02-19T04:16:05.340Z,1.11
2019-02-19T04:17:05.375Z,1.15
2019-02-19T04:18:05.408Z,1.12
2019-02-19T04:19:05.445Z,1.18
2019-02-19T04:20:05.481Z,1.18
2019-02-19T04:21:05.514Z,1.12
2019-02-19T04:22:05.558Z,1.08
2019-02-19T04:23:05.585Z,1.12
2019-02-19T04:24:05.622Z,1.14
2019-02-19T04:25:05.656Z,1.11
2019-02-19T04:26:05.690Z,1.15
2019-02-19T04:27:05.725Z,1.14
2019-02-19T04:28:05.760Z,1.14
2019-02-19T04:29:05.802Z,1.09
2019-02-19T04:30:05.833Z,1.14
2019-02-19T04:31:05.868Z,1.18
2019-02-19T04:32:05.904Z,1.15
2019-02-19T04:33:05.938Z,1.24
2019-02-19T04:34:05.971Z,1.24
2019-02-19T04:35:06.008Z,1.29
2019-02-19T04:36:06.043Z,1.26
2019-02-19T04:37:06.076Z,1.24
2019-02-19T04:38:06.114Z,1.33
2019-02-19T04:39:06.147Z,1.37
2019-02-19T04:40:06.185Z,1.37
2019-02-19T04:41:06.220Z,1.34
2019-02-19T04:42:06.257Z,1.32
2019-02-19T04:43:06.289Z,1.37
2019-02-19T04:44:06.327Z,1.27
2019-02-19T04:45:06.361Z,1.40
2019-02-19T04:46:06.416Z,1.40
2019-02-19T04:47:06.531Z,1.36
2019-02-19T04:48:06.473Z,1.42
2019-02-19T04:49:06.500Z,1.45
2019-02-19T04:50:06.546Z,1.44
2019-02-19T04:51:06.570Z,1.37
2019-02-19T04:52:06.606Z,1.37
2019-02-19T04:53:06.641Z,1.37
2019-02-19T04:54:06.677Z,1.37
2019-02-19T04:55:06.720Z,1.48
2019-02-19T04:56:06.747Z,1.45
2019-02-19T04:57:06.782Z,1.40
2019-02-19T04:58:06.816Z,1.36
2019-02-19T04:59:06.854Z,1.37
2019-02-19T05:00:06.889Z,1.41
2019-02-19T05:01:06.932Z,1.37
2019-02-19T05:02:06.957Z,1.48
2019-02-19T05:03:06.996Z,1.41
2019-02-19T05:04:07.036Z,1.47
2019-02-19T05:05:07.064Z,1.45
2019-02-19T05:06:07.100Z,1.48
2019-02-19T05:07:07.139Z,1.45
2019-02-19T05:08:07.172Z,1.45
2019-02-19T05:09:07.207Z,1.48
2019-02-19T05:10:07.243Z,1.44
2019-02-19T05:11:07.284Z,1.45
2019-02-19T05:12:07.313Z,1.47
2019-02-19T05:13:07.354Z,1.44
2019-02-19T05:14:07.383Z,1.50
2019-02-19T05:15:07.418Z,1.40
2019-02-19T05:16:07.455Z,1.40
2019-02-19T05:17:07.555Z,1.51
2019-02-19T05:18:07.524Z,1.47
2019-02-19T05:19:07.561Z,1.33
2019-02-19T05:20:07.596Z,1.34
2019-02-19T05:21:07.630Z,1.44
2019-02-19T05:22:07.670Z,1.45
2019-02-19T05:23:07.709Z,1.41
2019-02-19T05:24:07.789Z,1.36
2019-02-19T05:25:07.771Z,1.41
2019-02-19T05:26:07.859Z,1.34
2019-02-19T05:27:07.850Z,1.37
2019-02-19T05:28:07.879Z,1.54
2019-02-19T05:29:07.916Z,1.45
2019-02-19T05:30:07.949Z,1.42
2019-02-19T05:31:07.989Z,1.30
2019-02-19T05:32:08.021Z,1.48
2019-02-19T05:33:08.060Z,1.47
2019-02-19T05:34:08.097Z,1.47
2019-02-19T05:35:08.135Z,1.45
2019-02-19T05:36:09.172Z,1.47
2019-02-19T05:37:08.198Z,1.32
2019-02-19T05:38:08.235Z,1.30
2019-02-19T05:39:08.278Z,1.36
2019-02-19T05:40:08.304Z,1.36
2019-02-19T05:41:08.343Z,1.40
2019-02-19T05:42:08.381Z,1.33
2019-02-19T05:43:08.412Z,1.47
2019-02-19T05:44:08.444Z,1.40
2019-02-19T05:45:08.480Z,1.41
2019-02-19T05:46:08.521Z,1.33
2019-02-19T05:47:08.560Z,1.36
2019-02-19T05:48:08.585Z,1.41
2019-02-19T05:49:08.621Z,1.34
2019-02-19T05:50:08.656Z,1.32
2019-02-19T05:51:08.691Z,1.34
2019-02-19T05:52:08.727Z,1.37
2019-02-19T05:53:08.762Z,1.40
2019-02-19T05:54:08.803Z,1.37
2019-02-19T05:55:08.834Z,1.48
2019-02-19T05:56:08.868Z,1.37
2019-02-19T05:57:08.901Z,1.37
2019-02-19T05:58:08.936Z,1.40
2019-02-19T05:59:08.983Z,1.34
2019-02-19T06:00:09.016Z,1.34
2019-02-19T06:01:09.043Z,1.36
2019-02-19T06:02:09.080Z,1.33
2019-02-19T06:03:09.122Z,1.32
2019-02-19T06:04:09.148Z,1.37
2019-02-19T06:05:09.182Z,1.32
2019-02-19T06:06:09.217Z,1.42
2019-02-19T06:07:09.262Z,1.27
2019-02-19T06:08:09.290Z,1.45
2019-02-19T06:09:09.324Z,1.40
2019-02-19T06:10:09.360Z,1.51
2019-02-19T06:11:09.432Z,1.58
2019-02-19T06:12:09.437Z,1.65
2019-02-19T06:13:09.493Z,1.69
2019-02-19T06:14:09.502Z,1.77
2019-02-19T06:15:09.537Z,1.80
2019-02-19T06:16:09.573Z,1.84
2019-02-19T06:17:09.608Z,1.98
2019-02-19T06:18:09.640Z,1.87
2019-02-19T06:19:09.684Z,1.88
2019-02-19T06:20:09.712Z,1.93
2019-02-19T06:21:09.748Z,2.03
2019-02-19T06:22:09.783Z,2.05
2019-02-19T06:23:09.818Z,2.16
2019-02-19T06:24:09.854Z,2.17
2019-02-19T06:25:09.902Z,2.14
2019-02-19T06:26:09.926Z,2.20
2019-02-19T06:27:09.976Z,2.24
2019-02-19T06:28:10.013Z,2.28
2019-02-19T06:29:10.033Z,2.27
2019-02-19T06:30:10.065Z,2.30
2019-02-19T06:31:10.103Z,2.42
2019-02-19T06:32:10.137Z,2.46
2019-02-19T06:33:10.173Z,2.57
2019-02-19T06:34:10.208Z,2.72
2019-02-19T06:35:10.245Z,2.72
2019-02-19T06:36:10.286Z,2.79
2019-02-19T06:37:10.321Z,2.89
2019-02-19T06:38:10.350Z,2.84
2019-02-19T06:39:10.385Z,2.99
2019-02-19T06:40:10.422Z,3.00
2019-02-19T06:41:10.459Z,3.08
2019-02-19T06:42:10.552Z,2.97
2019-02-19T06:43:10.536Z,3.17
2019-02-19T06:44:10.567Z,3.21
2019-02-19T06:45:10.608Z,3.28
2019-02-19T06:46:10.635Z,3.24
2019-02-19T06:47:10.673Z,3.31
2019-02-19T06:48:10.750Z,3.33
2019-02-19T06:49:10.747Z,3.35
2019-02-19T06:50:10.781Z,3.40
2019-02-19T06:51:10.863Z,3.45
2019-02-19T06:52:10.854Z,3.50
2019-02-19T06:53:10.891Z,3.51
2019-02-19T06:54:10.926Z,3.50
2019-02-19T06:55:10.960Z,3.47
2019-02-19T06:56:11.000Z,3.54
2019-02-19T06:57:11.037Z,3.54
2019-02-19T06:58:11.069Z,3.52
2019-02-19T06:59:11.106Z,3.70
2019-02-19T07:00:11.141Z,3.69
2019-02-19T07:01:11.179Z,3.72
2019-02-19T07:02:11.216Z,3.83
2019-02-19T07:03:11.250Z,3.69
2019-02-19T07:04:11.288Z,3.86
2019-02-19T07:05:11.324Z,3.84
2019-02-19T07:06:11.365Z,3.86
2019-02-19T07:07:11.397Z,3.90
2019-02-19T07:08:11.434Z,3.84
2019-02-19T07:09:11.479Z,3.86
2019-02-19T07:10:11.504Z,3.86
2019-02-19T07:11:11.541Z,3.96
2019-02-19T07:12:11.582Z,3.97
2019-02-19T07:13:11.613Z,4.08
2019-02-19T07:14:11.650Z,4.04
2019-02-19T07:15:11.687Z,4.12
2019-02-19T07:16:11.724Z,4.26
2019-02-19T07:17:15.766Z,4.16
2019-02-19T07:18:11.798Z,4.36
2019-02-19T07:19:11.839Z,4.37
2019-02-19T07:20:11.871Z,4.47
2019-02-19T07:21:11.907Z,4.51
2019-02-19T07:22:11.949Z,4.50
2019-02-19T07:23:11.978Z,4.52
2019-02-19T07:24:12.014Z,4.60
2019-02-19T07:25:12.053Z,4.51
2019-02-19T07:26:12.088Z,4.55
2019-02-19T07:27:12.124Z,4.45
2019-02-19T07:28:12.170Z,4.40
2019-02-19T07:29:12.202Z,4.42
2019-02-19T07:30:12.238Z,4.45
2019-02-19T07:31:12.281Z,4.44
2019-02-19T07:32:12.310Z,4.54
2019-02-19T07:33:12.349Z,4.48
2019-02-19T07:34:12.382Z,4.54
2019-02-19T07:35:12.448Z,4.52
2019-02-19T07:36:12.461Z,4.54
2019-02-19T07:37:12.491Z,4.59
2019-02-19T07:38:12.527Z,4.70
2019-02-19T07:39:12.563Z,4.75
2019-02-19T07:40:12.610Z,4.73
2019-02-19T07:41:12.643Z,4.73
2019-02-19T07:42:12.673Z,4.82
2019-02-19T07:43:12.710Z,4.78
2019-02-19T07:44:12.755Z,4.94
2019-02-19T07:45:12.784Z,4.96
2019-02-19T07:46:12.822Z,4.94
2019-02-19T07:47:12.857Z,4.82
2019-02-19T07:48:12.901Z,4.82
2019-02-19T07:49:12.940Z,4.89
2019-02-19T07:50:12.967Z,4.92
2019-02-19T07:51:13.005Z,4.86
2019-02-19T07:52:13.044Z,4.94
2019-02-19T07:53:13.080Z,4.88
2019-02-19T07:54:13.116Z,4.94
2019-02-19T07:55:13.166Z,5.03
2019-02-19T07:56:13.189Z,5.13
2019-02-19T07:57:13.230Z,5.09
2019-02-19T07:58:13.263Z,5.10
2019-02-19T07:59:13.307Z,5.21
2019-02-19T08:00:13.390Z,5.17
2019-02-19T08:01:13.376Z,5.18
2019-02-19T08:02:13.410Z,5.25
2019-02-19T08:03:13.449Z,5.24
2019-02-19T08:04:13.487Z,5.25
2019-02-19T08:05:13.523Z,5.17
2019-02-19T08:06:13.559Z,5.20
2019-02-19T08:07:13.597Z,5.18
2019-02-19T08:08:13.639Z,5.20
2019-02-19T08:09:13.674Z,5.20
2019-02-19T08:10:13.710Z,5.24
2019-02-19T08:11:13.745Z,5.24
2019-02-19T08:12:13.781Z,5.30
2019-02-19T08:13:13.821Z,5.25
2019-02-19T08:14:13.857Z,5.22
2019-02-19T08:15:13.892Z,5.21
2019-02-19T08:16:13.932Z,5.24
2019-02-19T08:17:13.967Z,5.30
2019-02-19T08:18:14.005Z,5.40
2019-02-19T08:19:14.041Z,5.45
2019-02-19T08:20:16.120Z,5.49
2019-02-19T08:21:14.123Z,5.53
2019-02-19T08:22:14.154Z,5.68
2019-02-19T08:23:14.234Z,5.76
2019-02-19T08:24:14.227Z,5.83
2019-02-19T08:25:14.270Z,5.83
2019-02-19T08:26:14.302Z,5.94
2019-02-19T08:27:14.340Z,5.96
2019-02-19T08:28:14.375Z,6.00
2019-02-19T08:29:14.412Z,6.06
2019-02-19T08:30:14.448Z,6.11
2019-02-19T08:31:14.489Z,6.17
2019-02-19T08:32:14.524Z,6.19
2019-02-19T08:33:14.561Z,6.22
2019-02-19T08:34:14.616Z,6.18
2019-02-19T08:35:14.635Z,6.31
2019-02-19T08:36:14.673Z,6.40
2019-02-19T08:37:14.710Z,6.37
2019-02-19T08:38:14.756Z,6.46
2019-02-19T08:39:14.784Z,6.48
2019-02-19T08:40:14.832Z,6.59
2019-02-19T08:41:14.859Z,6.51
2019-02-19T08:42:14.901Z,6.61
2019-02-19T08:43:14.938Z,6.58
2019-02-19T08:44:14.977Z,6.61
2019-02-19T08:45:15.010Z,6.56
2019-02-19T08:46:15.047Z,6.71
2019-02-19T08:47:15.086Z,6.67
2019-02-19T08:48:15.123Z,6.71
2019-02-19T08:49:15.161Z,6.70
2019-02-19T08:50:15.197Z,6.74
2019-02-19T08:51:15.235Z,6.70
2019-02-19T08:52:15.282Z,6.84
2019-02-19T08:53:15.312Z,6.80
2019-02-19T08:54:15.348Z,6.89
2019-02-19T08:55:15.387Z,6.88
2019-02-19T08:56:15.425Z,6.88
2019-02-19T08:57:15.461Z,6.95
2019-02-19T08:58:15.500Z,6.92
2019-02-19T08:59:15.536Z,6.92
2019-02-19T09:00:15.575Z,6.94
2019-02-19T09:01:15.613Z,6.91
2019-02-19T09:02:15.651Z,6.91
2019-02-19T09:03:16.917Z,6.87
2019-02-19T09:04:15.725Z,6.85
2019-02-19T09:05:15.768Z,6.80
2019-02-19T09:06:15.810Z,6.85
2019-02-19T09:07:15.842Z,6.91
2019-02-19T09:08:15.884Z,6.95
2019-02-19T09:09:15.919Z,7.06
2019-02-19T09:10:15.953Z,7.07
2019-02-19T09:11:15.989Z,7.09
2019-02-19T09:12:16.033Z,7.09
2019-02-19T09:13:16.168Z,7.21
2019-02-19T09:14:16.115Z,7.30
2019-02-19T09:15:16.142Z,7.35
2019-02-19T09:16:16.179Z,7.42
2019-02-19T09:17:16.225Z,7.45
2019-02-19T09:18:16.268Z,7.58
2019-02-19T09:19:16.293Z,7.61
2019-02-19T09:20:16.330Z,7.72
2019-02-19T09:21:16.371Z,7.74
2019-02-19T09:22:16.407Z,7.74
2019-02-19T09:23:16.447Z,7.80
2019-02-19T09:24:16.486Z,7.95
2019-02-19T09:25:16.523Z,8.00
2019-02-19T09:26:16.565Z,7.89
2019-02-19T09:27:16.608Z,7.98
2019-02-19T09:28:16.639Z,7.97
2019-02-19T09:29:16.676Z,8.00
2019-02-19T09:30:16.716Z,8.05
2019-02-19T09:31:16.751Z,7.98
2019-02-19T09:32:16.793Z,8.02
2019-02-19T09:33:16.830Z,7.93
2019-02-19T09:34:16.869Z,8.01
2019-02-19T09:35:16.911Z,7.95
2019-02-19T09:36:16.946Z,7.92
2019-02-19T09:37:16.985Z,8.00
2019-02-19T09:38:17.026Z,7.93
2019-02-19T09:39:17.064Z,7.97
2019-02-19T09:40:17.100Z,8.02
2019-02-19T09:41:17.136Z,8.02
2019-02-19T09:42:17.175Z,8.00
2019-02-19T09:43:17.213Z,8.11
2019-02-19T09:44:17.260Z,8.10
2019-02-19T09:45:17.297Z,8.19
2019-02-19T09:46:17.329Z,8.11
2019-02-19T09:47:17.375Z,8.18
2019-02-19T09:48:17.407Z,8.28
2019-02-19T09:49:17.445Z,8.28
2019-02-19T09:50:17.489Z,8.19
2019-02-19T09:51:17.533Z,8.23
2019-02-19T09:52:17.562Z,8.33
2019-02-19T09:53:17.603Z,8.38
2019-02-19T09:54:17.639Z,8.41
2019-02-19T09:55:17.678Z,8.41
2019-02-19T09:56:17.726Z,8.52
2019-02-19T09:57:17.768Z,8.50
2019-02-19T09:58:17.796Z,8.70
2019-02-19T09:59:17.836Z,8.68
2019-02-19T10:00:17.887Z,8.76
2019-02-19T10:01:17.912Z,8.70
2019-02-19T10:02:17.951Z,8.77
2019-02-19T10:03:17.995Z,8.89
2019-02-19T10:04:18.033Z,8.86
2019-02-19T10:05:18.076Z,8.95
2019-02-19T10:06:18.114Z,8.96
2019-02-19T10:07:19.361Z,8.98
2019-02-19T10:08:18.184Z,8.96
2019-02-19T10:09:18.223Z,8.99
2019-02-19T10:10:18.264Z,8.98
2019-02-19T10:11:18.300Z,8.95
2019-02-19T10:12:18.337Z,9.10
2019-02-19T10:13:18.381Z,8.95
2019-02-19T10:14:18.434Z,9.08
2019-02-19T10:15:18.462Z,9.10
2019-02-19T10:16:18.500Z,9.04
2019-02-19T10:17:18.535Z,8.98
2019-02-19T10:18:18.577Z,8.98
2019-02-19T10:19:18.613Z,9.04
2019-02-19T10:20:18.659Z,9.01
2019-02-19T10:21:18.687Z,8.96
2019-02-19T10:22:18.730Z,9.14
2019-02-19T10:23:18.775Z,9.23
2019-02-19T10:24:18.807Z,9.28
2019-02-19T10:25:18.847Z,9.20
2019-02-19T10:26:18.885Z,9.20
2019-02-19T10:27:18.945Z,9.18
2019-02-19T10:28:18.963Z,9.18
2019-02-19T10:29:19.007Z,9.23
2019-02-19T10:30:19.052Z,9.24
2019-02-19T10:31:19.082Z,9.18
2019-02-19T10:32:19.120Z,9.23
2019-02-19T10:33:19.160Z,9.26
2019-02-19T10:34:19.204Z,9.24
2019-02-19T10:35:19.239Z,9.21
2019-02-19T10:36:19.277Z,9.23
2019-02-19T10:37:19.318Z,9.24
2019-02-19T10:38:19.356Z,9.10
2019-02-19T10:39:19.396Z,9.14
2019-02-19T10:40:19.438Z,9.14
2019-02-19T10:41:19.486Z,9.11
2019-02-19T10:42:19.513Z,9.14
2019-02-19T10:43:19.552Z,9.11
2019-02-19T10:44:19.591Z,9.10
2019-02-19T10:45:19.638Z,9.10
2019-02-19T10:46:19.668Z,9.04
2019-02-19T10:47:19.716Z,8.98
2019-02-19T10:48:19.746Z,8.86
2019-02-19T10:49:19.787Z,8.87
2019-02-19T10:50:19.927Z,8.96
2019-02-19T10:51:19.868Z,8.95
2019-02-19T10:52:19.904Z,9.02
2019-02-19T10:53:19.944Z,8.99
2019-02-19T10:54:20.000Z,8.95
2019-02-19T10:55:20.021Z,9.14
2019-02-19T10:56:20.062Z,9.21
2019-02-19T10:57:20.159Z,9.21
2019-02-19T10:58:22.953Z,9.23
2019-02-19T10:59:20.181Z,9.20
2019-02-19T11:00:20.217Z,9.24
2019-02-19T11:01:20.256Z,9.20
2019-02-19T11:02:20.294Z,9.18
2019-02-19T11:03:20.336Z,9.23
2019-02-19T11:04:20.375Z,9.28
2019-02-19T11:05:20.425Z,9.21
2019-02-19T11:06:20.471Z,9.14
2019-02-19T11:07:20.489Z,9.26
2019-02-19T11:08:20.530Z,9.24
2019-02-19T11:09:20.575Z,9.39
2019-02-19T11:10:20.608Z,9.24
2019-02-19T11:11:20.659Z,9.24
2019-02-19T11:12:20.687Z,9.39
2019-02-19T11:13:20.725Z,9.40
2019-02-19T11:14:20.763Z,9.51
2019-02-19T11:15:20.809Z,9.60
2019-02-19T11:16:20.843Z,9.50
2019-02-19T11:17:20.882Z,9.53
2019-02-19T11:18:28.092Z,9.65
2019-02-19T11:19:20.962Z,9.64
2019-02-19T11:20:21.000Z,9.71
2019-02-19T11:21:21.040Z,9.79
2019-02-19T11:22:21.079Z,9.87
2019-02-19T11:23:21.118Z,10.04
2019-02-19T11:24:21.164Z,10.15
2019-02-19T11:25:21.200Z,10.20
2019-02-19T11:26:21.235Z,10.33
2019-02-19T11:27:21.281Z,10.34
2019-02-19T11:28:21.315Z,10.48
2019-02-19T11:29:21.362Z,10.55
2019-02-19T11:30:21.398Z,10.64
2019-02-19T11:31:21.440Z,10.73
2019-02-19T11:32:21.475Z,10.71
2019-02-19T11:33:21.520Z,10.85
2019-02-19T11:34:21.554Z,10.82
2019-02-19T11:35:21.599Z,10.91
2019-02-19T11:36:21.640Z,10.92
2019-02-19T11:37:21.775Z,10.91
2019-02-19T11:38:21.716Z,10.91
2019-02-19T11:39:22.639Z,11.03
2019-02-19T11:40:21.796Z,11.14
2019-02-19T11:41:21.860Z,11.11
2019-02-19T11:42:21.931Z,11.22
2019-02-19T11:43:21.918Z,11.36
2019-02-19T11:44:22.076Z,11.49
2019-02-19T11:45:22.011Z,11.65
2019-02-19T11:46:22.052Z,11.79
2019-02-19T11:47:26.666Z,11.94
2019-02-19T11:48:22.116Z,12.01
2019-02-19T11:49:22.159Z,11.99
2019-02-19T11:50:22.199Z,12.16
2019-02-19T11:51:22.239Z,12.20
2019-02-19T11:52:22.282Z,12.20
2019-02-19T11:53:22.379Z,12.23
2019-02-19T11:54:22.360Z,12.34
2019-02-19T11:55:22.402Z,12.39
2019-02-19T11:56:22.443Z,12.42
2019-02-19T11:57:22.491Z,12.31
2019-02-19T11:58:22.524Z,12.32
2019-02-19T11:59:22.573Z,12.45
2019-02-19T12:00:22.606Z,12.35
2019-02-19T12:01:22.648Z,12.56
2019-02-19T12:02:22.690Z,12.56
2019-02-19T12:03:22.741Z,12.47
2019-02-19T12:04:22.774Z,12.45
2019-02-19T12:05:22.821Z,12.50
2019-02-19T12:06:22.912Z,12.35
2019-02-19T12:07:22.909Z,12.38
2019-02-19T12:08:22.949Z,12.35
2019-02-19T12:09:22.983Z,12.27
2019-02-19T12:10:23.021Z,12.28
2019-02-19T12:11:23.062Z,12.17
2019-02-19T12:12:23.103Z,12.02
2019-02-19T12:13:23.194Z,11.99
2019-02-19T12:14:23.191Z,11.83
2019-02-19T12:15:23.225Z,11.91
2019-02-19T12:16:23.267Z,11.98
2019-02-19T12:17:23.308Z,11.95
2019-02-19T12:18:23.355Z,11.88
2019-02-19T12:19:23.391Z,11.83
2019-02-19T12:20:23.439Z,11.86
2019-02-19T12:21:23.479Z,11.83
2019-02-19T12:22:23.513Z,11.91
2019-02-19T12:23:23.560Z,11.99
2019-02-19T12:24:23.600Z,11.95
2019-02-19T12:25:23.639Z,11.98
2019-02-19T12:26:23.679Z,11.98
2019-02-19T12:27:23.722Z,12.16
2019-02-19T12:28:23.762Z,12.12
2019-02-19T12:29:23.809Z,12.23
2019-02-19T12:30:23.847Z,12.21
2019-02-19T12:31:23.886Z,12.27
2019-02-19T12:32:23.927Z,12.13
2019-02-19T12:33:23.970Z,12.10
2019-02-19T12:34:24.010Z,12.12
2019-02-19T12:35:24.053Z,12.07
2019-02-19T12:36:24.095Z,11.99
2019-02-19T12:37:24.134Z,12.02
2019-02-19T12:38:24.174Z,11.95
2019-02-19T12:39:24.220Z,11.95
2019-02-19T12:40:24.260Z,11.80
2019-02-19T12:41:24.314Z,11.70
2019-02-19T12:42:24.347Z,11.58
2019-02-19T12:43:24.384Z,11.58
2019-02-19T12:44:24.423Z,11.75
2019-02-19T12:45:24.465Z,11.61
2019-02-19T12:46:24.504Z,11.65
2019-02-19T12:47:24.544Z,11.47
2019-02-19T12:48:24.584Z,11.46
2019-02-19T12:49:24.634Z,11.46
2019-02-19T12:50:24.675Z,11.39
2019-02-19T12:51:26.775Z,11.22
2019-02-19T12:52:24.758Z,11.32
2019-02-19T12:53:24.859Z,11.11
2019-02-19T12:54:24.837Z,11.11
2019-02-19T12:55:24.888Z,11.10
2019-02-19T12:56:24.922Z,11.07
2019-02-19T12:57:24.963Z,11.06
2019-02-19T12:58:25.001Z,10.96
2019-02-19T12:59:25.038Z,11.11
2019-02-19T13:00:25.087Z,10.99
2019-02-19T13:01:25.116Z,11.02
2019-02-19T13:02:25.161Z,10.92
2019-02-19T13:03:25.200Z,11.07
2019-02-19T13:04:25.239Z,11.04
2019-02-19T13:05:25.282Z,11.10
2019-02-19T13:06:25.324Z,11.09
2019-02-19T13:07:25.363Z,11.00
2019-02-19T13:08:25.406Z,11.03
2019-02-19T13:09:25.447Z,10.97
2019-02-19T13:10:25.482Z,10.88
2019-02-19T13:11:25.523Z,10.81
2019-02-19T13:12:25.563Z,10.78
2019-02-19T13:13:25.609Z,10.79
2019-02-19T13:14:25.643Z,10.78
2019-02-19T13:15:25.685Z,10.73